sensor_id;sensor_type;location;lat;lon;timestamp;P1;durP1;ratioP1;P2;durP2;ratioP2
77278;SDS011;66332;50.436;15.378;2023-05-07T04:03:56;15.73;;;7.78;;
77278;SDS011;66332;50.436;15.378;2023-05-07T04:13:18;15.43;;;7.03;;
77278;SDS011;66332;50.436;15.378;2023-05-07T04:17:58;13.50;;;6.65;;
77278;SDS011;66332;50.436;15.378;2023-05-07T04:22:39;13.43;;;6.43;;
77278;SDS011;66332;50.436;15.378;2023-05-07T04:27:20;14.30;;;6.57;;
77278;SDS011;66332;50.436;15.378;2023-05-07T04:32:01;14.65;;;6.70;;
77278;SDS011;66332;50.436;15.378;2023-05-07T04:36:42;14.05;;;6.35;;
77278;SDS011;66332;50.436;15.378;2023-05-07T04:41:23;12.18;;;5.93;;
77278;SDS011;66332;50.436;15.378;2023-05-07T04:46:04;15.38;;;7.05;;
77278;SDS011;66332;50.436;15.378;2023-05-07T04:50:51;14.13;;;7.13;;
77278;SDS011;66332;50.436;15.378;2023-05-07T04:55:32;14.25;;;7.05;;
77278;SDS011;66332;50.436;15.378;2023-05-07T05:00:13;13.00;;;6.57;;
77278;SDS011;66332;50.436;15.378;2023-05-07T05:04:55;13.50;;;6.00;;
77278;SDS011;66332;50.436;15.378;2023-05-07T05:09:35;11.70;;;5.93;;
77278;SDS011;66332;50.436;15.378;2023-05-07T05:14:16;11.07;;;5.43;;
77278;SDS011;66332;50.436;15.378;2023-05-07T05:18:57;11.73;;;5.20;;
77278;SDS011;66332;50.436;15.378;2023-05-07T05:23:38;9.68;;;5.07;;
77278;SDS011;66332;50.436;15.378;2023-05-07T05:32:59;6.47;;;2.90;;
77278;SDS011;66332;50.436;15.378;2023-05-07T05:37:41;6.95;;;3.22;;
77278;SDS011;66332;50.436;15.378;2023-05-07T05:42:23;6.18;;;2.50;;
77278;SDS011;66332;50.436;15.378;2023-05-07T05:47:03;6.55;;;2.72;;
77278;SDS011;66332;50.436;15.378;2023-05-07T05:51:44;7.10;;;3.03;;
77278;SDS011;66332;50.436;15.378;2023-05-07T05:56:26;6.90;;;3.00;;
77278;SDS011;66332;50.436;15.378;2023-05-07T06:01:07;6.80;;;3.20;;
77278;SDS011;66332;50.436;15.378;2023-05-07T06:05:48;6.82;;;3.13;;
77278;SDS011;66332;50.436;15.378;2023-05-07T06:10:29;6.55;;;2.95;;
77278;SDS011;66332;50.436;15.378;2023-05-07T06:15:11;6.13;;;2.70;;
77278;SDS011;66332;50.436;15.378;2023-05-07T06:19:53;5.90;;;2.70;;
77278;SDS011;66332;50.436;15.378;2023-05-07T06:24:34;5.93;;;2.78;;
77278;SDS011;66332;50.436;15.378;2023-05-07T06:29:14;6.15;;;2.42;;
77278;SDS011;66332;50.436;15.378;2023-05-07T06:33:55;5.60;;;2.33;;
77278;SDS011;66332;50.436;15.378;2023-05-07T06:38:36;5.70;;;2.30;;
77278;SDS011;66332;50.436;15.378;2023-05-07T06:43:17;6.00;;;2.50;;
77278;SDS011;66332;50.436;15.378;2023-05-07T06:47:58;5.72;;;2.47;;
77278;SDS011;66332;50.436;15.378;2023-05-07T06:52:39;5.68;;;2.38;;
77278;SDS011;66332;50.436;15.378;2023-05-07T06:57:20;5.85;;;2.40;;
77278;SDS011;66332;50.436;15.378;2023-05-07T07:02:00;5.30;;;2.28;;
77278;SDS011;66332;50.436;15.378;2023-05-07T07:06:41;5.50;;;2.03;;
77278;SDS011;66332;50.436;15.378;2023-05-07T07:16:03;6.47;;;2.28;;
77278;SDS011;66332;50.436;15.378;2023-05-07T07:20:44;4.97;;;1.80;;
77278;SDS011;66332;50.436;15.378;2023-05-07T07:25:25;4.90;;;2.10;;
77278;SDS011;66332;50.436;15.378;2023-05-07T07:30:06;5.38;;;2.30;;
77278;SDS011;66332;50.436;15.378;2023-05-07T07:34:48;5.70;;;2.58;;
77278;SDS011;66332;50.436;15.378;2023-05-07T07:39:29;6.25;;;2.50;;
77278;SDS011;66332;50.436;15.378;2023-05-07T07:44:09;5.95;;;2.60;;
77278;SDS011;66332;50.436;15.378;2023-05-07T07:48:53;6.20;;;2.70;;
77278;SDS011;66332;50.436;15.378;2023-05-07T07:53:34;6.13;;;2.67;;
77278;SDS011;66332;50.436;15.378;2023-05-07T07:58:15;6.72;;;2.55;;
77278;SDS011;66332;50.436;15.378;2023-05-07T08:02:56;7.60;;;2.75;;
77278;SDS011;66332;50.436;15.378;2023-05-07T08:07:37;6.22;;;2.65;;
77278;SDS011;66332;50.436;15.378;2023-05-07T08:12:17;6.25;;;2.90;;
77278;SDS011;66332;50.436;15.378;2023-05-07T08:16:58;6.50;;;2.97;;
77278;SDS011;66332;50.436;15.378;2023-05-07T08:21:39;6.20;;;2.65;;
77278;SDS011;66332;50.436;15.378;2023-05-07T08:26:21;7.53;;;2.90;;
77278;SDS011;66332;50.436;15.378;2023-05-07T08:31:01;6.35;;;2.90;;
77278;SDS011;66332;50.436;15.378;2023-05-07T08:35:42;7.82;;;3.00;;
77278;SDS011;66332;50.436;15.378;2023-05-07T08:40:24;6.50;;;2.70;;
77278;SDS011;66332;50.436;15.378;2023-05-07T08:45:09;6.10;;;2.65;;
77278;SDS011;66332;50.436;15.378;2023-05-07T08:49:51;12.50;;;4.80;;
77278;SDS011;66332;50.436;15.378;2023-05-07T08:54:32;6.47;;;2.90;;
77278;SDS011;66332;50.436;15.378;2023-05-07T08:59:13;6.53;;;2.55;;
77278;SDS011;66332;50.436;15.378;2023-05-07T09:03:54;7.68;;;3.30;;
77278;SDS011;66332;50.436;15.378;2023-05-07T09:13:17;6.70;;;3.25;;
77278;SDS011;66332;50.436;15.378;2023-05-07T09:17:59;7.35;;;3.63;;
77278;SDS011;66332;50.436;15.378;2023-05-07T09:22:41;6.88;;;3.30;;
77278;SDS011;66332;50.436;15.378;2023-05-07T09:27:24;7.55;;;3.63;;
77278;SDS011;66332;50.436;15.378;2023-05-07T09:32:06;8.13;;;4.28;;
77278;SDS011;66332;50.436;15.378;2023-05-07T09:36:49;7.80;;;4.07;;
77278;SDS011;66332;50.436;15.378;2023-05-07T09:46:13;7.18;;;3.40;;
77278;SDS011;66332;50.436;15.378;2023-05-07T09:50:55;8.43;;;4.20;;
77278;SDS011;66332;50.436;15.378;2023-05-07T09:55:39;7.78;;;3.97;;
77278;SDS011;66332;50.436;15.378;2023-05-07T10:00:20;7.80;;;3.30;;
77278;SDS011;66332;50.436;15.378;2023-05-07T10:05:03;7.95;;;3.70;;
77278;SDS011;66332;50.436;15.378;2023-05-07T10:09:44;7.63;;;3.72;;
77278;SDS011;66332;50.436;15.378;2023-05-07T10:14:26;9.30;;;4.22;;
77278;SDS011;66332;50.436;15.378;2023-05-07T10:19:09;9.32;;;4.05;;
77278;SDS011;66332;50.436;15.378;2023-05-07T10:24:13;8.23;;;4.00;;
77278;SDS011;66332;50.436;15.378;2023-05-07T10:29:14;8.27;;;3.88;;
77278;SDS011;66332;50.436;15.378;2023-05-07T10:34:02;7.93;;;4.35;;
77278;SDS011;66332;50.436;15.378;2023-05-07T10:44:03;8.35;;;4.45;;
77278;SDS011;66332;50.436;15.378;2023-05-07T10:53:54;8.13;;;4.30;;
77278;SDS011;66332;50.436;15.378;2023-05-07T10:58:49;6.03;;;2.80;;
77278;SDS011;66332;50.436;15.378;2023-05-07T11:03:30;8.35;;;4.15;;
77278;SDS011;66332;50.436;15.378;2023-05-07T11:08:11;6.75;;;3.55;;
77278;SDS011;66332;50.436;15.378;2023-05-07T11:12:52;7.18;;;3.47;;
77278;SDS011;66332;50.436;15.378;2023-05-07T11:17:34;8.00;;;3.85;;
77278;SDS011;66332;50.436;15.378;2023-05-07T11:27:18;7.88;;;3.90;;
77278;SDS011;66332;50.436;15.378;2023-05-07T11:32:04;6.95;;;3.55;;
77278;SDS011;66332;50.436;15.378;2023-05-07T11:36:46;7.55;;;4.03;;
77278;SDS011;66332;50.436;15.378;2023-05-07T11:41:35;8.23;;;3.13;;
77278;SDS011;66332;50.436;15.378;2023-05-07T11:46:20;7.10;;;3.90;;
77278;SDS011;66332;50.436;15.378;2023-05-07T11:51:02;8.88;;;4.72;;
77278;SDS011;66332;50.436;15.378;2023-05-07T11:55:45;6.82;;;3.40;;
77278;SDS011;66332;50.436;15.378;2023-05-07T12:00:26;6.18;;;3.30;;
77278;SDS011;66332;50.436;15.378;2023-05-07T12:05:07;7.97;;;3.80;;
77278;SDS011;66332;50.436;15.378;2023-05-07T12:09:48;6.60;;;3.67;;
77278;SDS011;66332;50.436;15.378;2023-05-07T12:14:31;7.90;;;3.85;;
77278;SDS011;66332;50.436;15.378;2023-05-07T12:19:16;7.18;;;3.70;;
77278;SDS011;66332;50.436;15.378;2023-05-07T12:23:58;6.97;;;3.65;;
77278;SDS011;66332;50.436;15.378;2023-05-07T12:28:39;7.68;;;3.92;;
77278;SDS011;66332;50.436;15.378;2023-05-07T12:33:24;7.90;;;3.55;;
77278;SDS011;66332;50.436;15.378;2023-05-07T12:38:10;7.28;;;3.92;;
77278;SDS011;66332;50.436;15.378;2023-05-07T12:42:53;7.30;;;4.10;;
77278;SDS011;66332;50.436;15.378;2023-05-07T12:47:36;7.82;;;4.40;;
77278;SDS011;66332;50.436;15.378;2023-05-07T12:52:18;7.53;;;4.55;;
77278;SDS011;66332;50.436;15.378;2023-05-07T12:57:08;7.53;;;4.18;;
77278;SDS011;66332;50.436;15.378;2023-05-07T13:01:50;7.50;;;3.80;;
77278;SDS011;66332;50.436;15.378;2023-05-07T13:06:30;6.78;;;4.00;;
77278;SDS011;66332;50.436;15.378;2023-05-07T13:11:12;8.57;;;3.92;;
77278;SDS011;66332;50.436;15.378;2023-05-07T13:15:53;7.68;;;4.60;;
77278;SDS011;66332;50.436;15.378;2023-05-07T13:20:34;7.75;;;4.10;;
77278;SDS011;66332;50.436;15.378;2023-05-07T13:25:15;7.53;;;3.90;;
77278;SDS011;66332;50.436;15.378;2023-05-07T13:29:56;7.32;;;3.80;;
77278;SDS011;66332;50.436;15.378;2023-05-07T13:34:37;7.45;;;3.97;;
77278;SDS011;66332;50.436;15.378;2023-05-07T13:39:18;7.78;;;3.80;;
77278;SDS011;66332;50.436;15.378;2023-05-07T13:43:59;7.10;;;3.72;;
77278;SDS011;66332;50.436;15.378;2023-05-07T13:48:40;7.60;;;4.20;;
77278;SDS011;66332;50.436;15.378;2023-05-07T13:58:01;7.97;;;4.13;;
77278;SDS011;66332;50.436;15.378;2023-05-07T14:02:43;9.20;;;5.30;;
77278;SDS011;66332;50.436;15.378;2023-05-07T14:07:24;9.32;;;5.25;;
77278;SDS011;66332;50.436;15.378;2023-05-07T14:12:05;10.25;;;5.43;;
77278;SDS011;66332;50.436;15.378;2023-05-07T14:16:46;9.38;;;5.25;;
77278;SDS011;66332;50.436;15.378;2023-05-07T14:26:08;9.40;;;4.15;;
77278;SDS011;66332;50.436;15.378;2023-05-07T14:35:30;8.20;;;4.22;;
77278;SDS011;66332;50.436;15.378;2023-05-07T14:40:11;9.13;;;4.35;;
77278;SDS011;66332;50.436;15.378;2023-05-07T14:44:52;7.85;;;3.83;;
77278;SDS011;66332;50.436;15.378;2023-05-07T14:49:38;7.80;;;4.00;;
77278;SDS011;66332;50.436;15.378;2023-05-07T14:54:19;7.35;;;3.50;;
77278;SDS011;66332;50.436;15.378;2023-05-07T14:59:00;7.55;;;4.13;;
77278;SDS011;66332;50.436;15.378;2023-05-07T15:03:41;7.43;;;3.67;;
77278;SDS011;66332;50.436;15.378;2023-05-07T15:08:24;8.07;;;3.55;;
77278;SDS011;66332;50.436;15.378;2023-05-07T15:13:05;6.35;;;2.95;;
77278;SDS011;66332;50.436;15.378;2023-05-07T15:17:46;6.57;;;3.35;;
77278;SDS011;66332;50.436;15.378;2023-05-07T15:22:27;6.80;;;3.28;;
77278;SDS011;66332;50.436;15.378;2023-05-07T15:27:08;6.18;;;2.67;;
77278;SDS011;66332;50.436;15.378;2023-05-07T15:31:51;7.35;;;3.60;;
77278;SDS011;66332;50.436;15.378;2023-05-07T15:36:33;7.80;;;3.80;;
77278;SDS011;66332;50.436;15.378;2023-05-07T15:41:14;9.32;;;3.45;;
77278;SDS011;66332;50.436;15.378;2023-05-07T15:45:55;6.88;;;2.47;;
77278;SDS011;66332;50.436;15.378;2023-05-07T15:50:36;6.13;;;2.90;;
77278;SDS011;66332;50.436;15.378;2023-05-07T15:55:18;7.82;;;3.38;;
77278;SDS011;66332;50.436;15.378;2023-05-07T15:59:58;6.63;;;3.28;;
77278;SDS011;66332;50.436;15.378;2023-05-07T16:04:39;6.15;;;3.15;;
77278;SDS011;66332;50.436;15.378;2023-05-07T16:09:20;6.70;;;3.40;;
77278;SDS011;66332;50.436;15.378;2023-05-07T16:18:42;6.28;;;3.38;;
77278;SDS011;66332;50.436;15.378;2023-05-07T16:23:23;7.05;;;3.25;;
77278;SDS011;66332;50.436;15.378;2023-05-07T16:28:04;6.80;;;3.22;;
77278;SDS011;66332;50.436;15.378;2023-05-07T16:32:45;7.10;;;3.47;;
77278;SDS011;66332;50.436;15.378;2023-05-07T16:37:26;7.57;;;2.85;;
77278;SDS011;66332;50.436;15.378;2023-05-07T16:42:07;7.25;;;3.28;;
77278;SDS011;66332;50.436;15.378;2023-05-07T16:46:48;7.13;;;3.80;;
77278;SDS011;66332;50.436;15.378;2023-05-07T16:51:29;6.30;;;2.97;;
77278;SDS011;66332;50.436;15.378;2023-05-07T16:56:09;6.93;;;3.00;;
77278;SDS011;66332;50.436;15.378;2023-05-07T17:00:50;10.00;;;3.28;;
77278;SDS011;66332;50.436;15.378;2023-05-07T17:05:31;6.57;;;3.45;;
77278;SDS011;66332;50.436;15.378;2023-05-07T17:10:12;7.35;;;3.30;;
77278;SDS011;66332;50.436;15.378;2023-05-07T17:14:53;8.23;;;3.70;;
77278;SDS011;66332;50.436;15.378;2023-05-07T17:19:35;7.05;;;3.00;;
77278;SDS011;66332;50.436;15.378;2023-05-07T17:24:18;8.65;;;3.30;;
77278;SDS011;66332;50.436;15.378;2023-05-07T17:28:59;8.38;;;3.90;;
77278;SDS011;66332;50.436;15.378;2023-05-07T17:33:40;7.13;;;3.17;;
77278;SDS011;66332;50.436;15.378;2023-05-07T17:38:21;8.27;;;3.97;;
77278;SDS011;66332;50.436;15.378;2023-05-07T17:43:03;9.32;;;4.68;;
77278;SDS011;66332;50.436;15.378;2023-05-07T17:47:43;7.35;;;2.83;;
77278;SDS011;66332;50.436;15.378;2023-05-07T17:52:24;6.53;;;2.67;;
77278;SDS011;66332;50.436;15.378;2023-05-07T17:57:05;6.47;;;2.85;;
77278;SDS011;66332;50.436;15.378;2023-05-07T18:01:46;8.00;;;2.95;;
77278;SDS011;66332;50.436;15.378;2023-05-07T18:06:27;7.38;;;3.38;;
77278;SDS011;66332;50.436;15.378;2023-05-07T18:11:08;7.97;;;3.83;;
77278;SDS011;66332;50.436;15.378;2023-05-07T18:15:50;8.02;;;4.25;;
77278;SDS011;66332;50.436;15.378;2023-05-07T18:20:31;7.03;;;3.67;;
77278;SDS011;66332;50.436;15.378;2023-05-07T18:25:12;8.35;;;3.58;;
77278;SDS011;66332;50.436;15.378;2023-05-07T18:29:53;8.15;;;3.70;;
77278;SDS011;66332;50.436;15.378;2023-05-07T18:34:34;7.53;;;3.78;;
77278;SDS011;66332;50.436;15.378;2023-05-07T18:39:15;7.32;;;3.50;;
77278;SDS011;66332;50.436;15.378;2023-05-07T18:43:56;7.43;;;3.80;;
77278;SDS011;66332;50.436;15.378;2023-05-07T18:48:37;6.90;;;3.78;;
77278;SDS011;66332;50.436;15.378;2023-05-07T18:53:20;7.50;;;3.40;;
77278;SDS011;66332;50.436;15.378;2023-05-07T18:58:01;8.55;;;4.05;;
77278;SDS011;66332;50.436;15.378;2023-05-07T19:02:42;8.90;;;5.05;;
77278;SDS011;66332;50.436;15.378;2023-05-07T19:07:23;8.27;;;4.50;;
77278;SDS011;66332;50.436;15.378;2023-05-07T19:12:04;8.27;;;4.03;;
77278;SDS011;66332;50.436;15.378;2023-05-07T19:16:46;9.65;;;4.60;;
77278;SDS011;66332;50.436;15.378;2023-05-07T19:21:27;9.70;;;4.65;;
77278;SDS011;66332;50.436;15.378;2023-05-07T19:26:08;9.23;;;5.07;;
77278;SDS011;66332;50.436;15.378;2023-05-07T19:30:50;11.25;;;5.80;;
77278;SDS011;66332;50.436;15.378;2023-05-07T19:35:32;10.35;;;5.28;;
77278;SDS011;66332;50.436;15.378;2023-05-07T19:40:15;10.98;;;5.35;;
77278;SDS011;66332;50.436;15.378;2023-05-07T19:44:55;10.18;;;5.70;;
77278;SDS011;66332;50.436;15.378;2023-05-07T19:49:36;10.07;;;5.32;;
77278;SDS011;66332;50.436;15.378;2023-05-07T19:54:18;10.48;;;5.18;;
77278;SDS011;66332;50.436;15.378;2023-05-07T19:58:58;10.23;;;5.43;;
77278;SDS011;66332;50.436;15.378;2023-05-07T20:03:40;9.32;;;4.82;;
77278;SDS011;66332;50.436;15.378;2023-05-07T20:08:21;9.68;;;4.43;;
77278;SDS011;66332;50.436;15.378;2023-05-07T20:13:02;10.05;;;4.28;;
77278;SDS011;66332;50.436;15.378;2023-05-07T20:17:43;10.65;;;5.13;;
77278;SDS011;66332;50.436;15.378;2023-05-07T20:22:24;9.60;;;5.32;;
77278;SDS011;66332;50.436;15.378;2023-05-07T20:27:05;9.45;;;5.18;;
77278;SDS011;66332;50.436;15.378;2023-05-07T20:31:46;11.07;;;5.60;;
77278;SDS011;66332;50.436;15.378;2023-05-07T20:36:27;11.35;;;5.80;;
77278;SDS011;66332;50.436;15.378;2023-05-07T20:41:09;10.77;;;5.78;;
77278;SDS011;66332;50.436;15.378;2023-05-07T20:46:00;10.88;;;5.70;;
77278;SDS011;66332;50.436;15.378;2023-05-07T20:50:42;9.30;;;5.00;;
77278;SDS011;66332;50.436;15.378;2023-05-07T20:55:22;14.65;;;7.15;;
77278;SDS011;66332;50.436;15.378;2023-05-07T21:00:03;10.43;;;5.53;;
77278;SDS011;66332;50.436;15.378;2023-05-07T21:04:45;9.65;;;5.20;;
77278;SDS011;66332;50.436;15.378;2023-05-07T21:09:26;10.35;;;5.80;;
77278;SDS011;66332;50.436;15.378;2023-05-07T21:14:06;10.73;;;5.85;;
77278;SDS011;66332;50.436;15.378;2023-05-07T21:18:47;10.27;;;5.40;;
77278;SDS011;66332;50.436;15.378;2023-05-07T21:23:28;7.75;;;4.03;;
77278;SDS011;66332;50.436;15.378;2023-05-07T21:28:09;10.65;;;5.45;;
77278;SDS011;66332;50.436;15.378;2023-05-07T21:32:50;12.73;;;6.25;;
77278;SDS011;66332;50.436;15.378;2023-05-07T21:37:32;8.90;;;4.85;;
77278;SDS011;66332;50.436;15.378;2023-05-07T21:42:12;8.67;;;4.30;;
77278;SDS011;66332;50.436;15.378;2023-05-07T21:46:53;10.55;;;5.13;;
77278;SDS011;66332;50.436;15.378;2023-05-07T21:51:34;10.18;;;5.07;;
